Terminal Aerodrome Forecast
Issued by NWS

Home | Current Version | Previous Version | Text Only | Print | Product List | Glossary On
Versions: 1 2 3 4 5 6 7 8 9 10 11
739
FTUS45 KABQ 181126
TAFLVS
TAF
KLVS 181126Z 1812/1912 01005KT P6SM SCT250
     FM182000 14008KT P6SM SCT250
     FM190200 03005KT P6SM BKN200=

USA.gov is the U.S. government's official web portal to all federal, state and local government web resources and services.